createdAt,value
2023-08-17T00:00:23.741Z,3.20
2023-08-17T00:10:26.907Z,2.70
2023-08-17T00:20:29.890Z,3.10
2023-08-17T00:30:36.502Z,3.40
2023-08-17T00:40:39.706Z,3.30
2023-08-17T00:50:44.526Z,2.90
2023-08-17T01:00:48.061Z,2.70
2023-08-17T01:10:58.792Z,3.80
2023-08-17T01:21:06.428Z,4.20
2023-08-17T01:41:16.658Z,4.70
2023-08-17T01:51:20.563Z,4.80
2023-08-17T02:01:23.841Z,4.40
2023-08-17T02:11:27.544Z,4.70
2023-08-17T02:21:30.526Z,5.00
2023-08-17T02:31:33.574Z,4.70
2023-08-17T02:41:36.572Z,5.10
2023-08-17T02:51:39.547Z,4.50
2023-08-17T03:01:42.592Z,4.90
2023-08-17T03:11:45.684Z,4.50
2023-08-17T03:21:48.682Z,4.80
2023-08-17T03:31:51.680Z,5.00
2023-08-17T03:41:54.669Z,4.90
2023-08-17T03:51:57.789Z,5.30
2023-08-17T04:02:01.060Z,5.40
2023-08-17T04:12:05.475Z,5.30
2023-08-17T04:22:10.722Z,6.50
2023-08-17T04:32:16.430Z,5.20
2023-08-17T04:42:20.451Z,6.50
2023-08-17T04:52:23.706Z,7.10
2023-08-17T05:02:27.445Z,6.90
2023-08-17T05:12:31.260Z,6.20
2023-08-17T05:22:34.381Z,6.10
2023-08-17T05:32:37.442Z,6.00
2023-08-17T05:42:40.639Z,5.80
2023-08-17T05:52:43.704Z,6.30
2023-08-17T06:02:50.463Z,6.10
2023-08-17T06:22:55.882Z,4.20
2023-08-17T06:32:59.462Z,4.50
2023-08-17T06:43:02.458Z,4.20
2023-08-17T06:53:06.301Z,4.20
2023-08-17T07:03:09.661Z,4.70
2023-08-17T07:13:12.659Z,4.80
2023-08-17T07:23:15.783Z,4.00
2023-08-17T07:33:18.840Z,4.40
2023-08-17T07:43:21.857Z,3.70
2023-08-17T07:53:24.929Z,3.70
2023-08-17T08:03:27.999Z,3.70
2023-08-17T08:13:31.052Z,3.40
2023-08-17T08:23:34.058Z,3.40
2023-08-17T08:33:37.214Z,3.60
2023-08-17T08:43:40.444Z,3.10
2023-08-17T08:53:46.529Z,3.20
2023-08-17T09:03:50.541Z,3.30
2023-08-17T09:13:55.101Z,3.60
2023-08-17T09:24:00.406Z,2.80
2023-08-17T09:34:07.512Z,3.10
2023-08-17T09:44:12.005Z,3.00
2023-08-17T09:54:23.042Z,3.30
2023-08-17T10:04:28.692Z,2.80
2023-08-17T10:14:36.245Z,2.90
2023-08-17T10:24:40.318Z,2.90
2023-08-17T10:34:43.999Z,3.30
2023-08-17T10:44:48.211Z,2.40
2023-08-17T10:54:51.345Z,2.30
2023-08-17T11:04:54.353Z,2.50
2023-08-17T11:15:00.339Z,2.70
2023-08-17T11:25:07.487Z,2.20
2023-08-17T11:35:11.595Z,2.50
2023-08-17T11:45:15.660Z,2.40
2023-08-17T11:55:20.956Z,2.80
2023-08-17T12:05:27.456Z,2.60
2023-08-17T12:15:33.115Z,2.60
2023-08-17T12:25:36.098Z,2.40
2023-08-17T12:35:39.815Z,2.40
2023-08-17T12:45:42.862Z,2.60
2023-08-17T12:55:45.945Z,2.80
2023-08-17T13:05:48.922Z,2.60
2023-08-17T13:15:52.853Z,2.50
2023-08-17T13:25:55.831Z,2.50
2023-08-17T13:35:58.958Z,2.70
2023-08-17T13:46:02.480Z,2.80
2023-08-17T13:56:05.940Z,2.80
2023-08-17T14:06:08.970Z,2.90
2023-08-17T14:16:12.279Z,2.70
2023-08-17T14:26:15.747Z,2.80
2023-08-17T14:36:20.489Z,2.70
2023-08-17T14:46:24.087Z,2.80
2023-08-17T14:56:27.125Z,2.90
2023-08-17T15:06:34.261Z,2.70
2023-08-17T15:16:38.119Z,2.30
2023-08-17T15:26:41.457Z,3.10
2023-08-17T15:36:44.464Z,3.00
2023-08-17T15:46:47.424Z,3.00
2023-08-17T15:56:51.059Z,2.60
2023-08-17T16:06:54.431Z,3.20
2023-08-17T16:16:57.928Z,3.50
2023-08-17T16:27:01.653Z,3.60
2023-08-17T16:37:04.880Z,3.50
2023-08-17T16:47:07.900Z,4.00
2023-08-17T16:57:10.933Z,3.80
2023-08-17T17:07:14.627Z,4.30
2023-08-17T17:17:17.698Z,3.90
2023-08-17T17:27:20.676Z,4.00
2023-08-17T17:37:23.726Z,4.20
2023-08-17T17:47:27.618Z,4.40
2023-08-17T17:57:31.175Z,4.40
2023-08-17T18:07:34.398Z,5.00
2023-08-17T18:17:37.433Z,4.90
2023-08-17T18:27:42.135Z,5.30
2023-08-17T18:37:46.237Z,5.80
2023-08-17T18:47:49.184Z,5.30
2023-08-17T18:57:54.150Z,4.90
2023-08-17T19:07:58.016Z,4.60
2023-08-17T19:18:01.046Z,4.70
2023-08-17T19:28:04.527Z,4.80
2023-08-17T19:38:07.513Z,4.80
2023-08-17T19:48:10.583Z,4.80
2023-08-17T19:58:13.648Z,4.90
2023-08-17T20:08:16.676Z,5.10
2023-08-17T20:18:19.720Z,5.10
2023-08-17T20:28:22.742Z,5.00
2023-08-17T20:38:25.685Z,5.10
2023-08-17T20:48:28.710Z,5.10
2023-08-17T20:58:31.703Z,5.30
2023-08-17T21:08:35.752Z,4.60
2023-08-17T21:18:39.818Z,5.00
2023-08-17T21:28:42.857Z,5.40
2023-08-17T21:38:47.213Z,5.70
2023-08-17T21:48:50.475Z,6.00
2023-08-17T21:58:53.530Z,6.30
2023-08-17T22:08:56.477Z,6.50
2023-08-17T22:18:59.481Z,7.30
2023-08-17T22:29:03.826Z,7.70
2023-08-17T22:39:10.753Z,8.20
2023-08-17T22:49:13.880Z,8.60
2023-08-17T22:59:17.999Z,8.00
2023-08-17T23:09:21.617Z,8.50
2023-08-17T23:19:24.767Z,9.40
2023-08-17T23:29:27.863Z,8.80
2023-08-17T23:39:30.975Z,9.20
2023-08-17T23:49:34.494Z,8.00
2023-08-17T23:59:37.495Z,8.10
